»·PEaware :: N8PF KPSP-KSMO

N8PF :: KPSP-KSMO

FLIGHT INFORMATION

Flight Status: Arrived
Operator: Privately registered:
United States
More flights under this callsign
Pilot: Ben L. (6391)
Aircraft: CIRRUS VISIONJET
(SF50)
More flights by this aircraft type
Origin: KPSP Palm Springs Intl
United States
Destination: KSMO Santa Monica Mun
United States
More flights between these airports :: More routes between these airports
Route: CATH1 PSP V388 DEWAY POM DARTS
File this flight plan on PilotEdge
Remarks:
Altitude:
(Current/Filed)
12,000ft
Speed:
(Current/Filed)
250kts
Departed: 14-Nov-19 10:44 AM
Arrived: 14-Nov-19 11:16 AM
Distance/Time
Traveled:
98nm/0:32
Distance/Time
To Go:
Arrived

Flight Plot

Page will automatically refresh every two minutes.

Flight plan parsing failed; only flown route is shown


Map Options




Map Legend


Flown Route
Filed Route
Departure Airport
Arrival Airport
Navaid (VOR, NDB)
Fix

Horizontal Profiles

Position Reports

Time Latitude Longitude Heading Altitude Ground
Speed
14-Nov-19 10:26 33.828420 -116.512261 90 481ft 0kts
14-Nov-19 10:27 33.828420 -116.512261 90 481ft 0kts
14-Nov-19 10:28 33.828420 -116.512261 90 481ft 0kts
14-Nov-19 10:29 33.828420 -116.512261 90 481ft 0kts
14-Nov-19 10:30 33.828420 -116.512261 90 481ft 0kts
14-Nov-19 10:31 33.828420 -116.512261 90 481ft 0kts
14-Nov-19 10:32 33.828420 -116.512261 90 481ft 0kts
14-Nov-19 10:33 33.828420 -116.512261 90 481ft 0kts
14-Nov-19 10:34 33.828458 -116.512120 56 481ft 2kts
14-Nov-19 10:35 33.828658 -116.509715 81 481ft 3kts
14-Nov-19 10:36 33.828668 -116.509619 83 481ft 0kts
14-Nov-19 10:37 33.828670 -116.509591 83 481ft 0kts
14-Nov-19 10:38 33.828670 -116.509591 83 481ft 0kts
14-Nov-19 10:39 33.828237 -116.508201 172 481ft 10kts
14-Nov-19 10:40 33.824539 -116.505080 141 481ft 23kts
14-Nov-19 10:41 33.819722 -116.500827 143 481ft 19kts
14-Nov-19 10:42 33.819316 -116.498438 329 481ft 0kts
14-Nov-19 10:43 33.821182 -116.500100 317 481ft 66kts
14-Nov-19 10:44 33.846123 -116.523607 311 1877ft 131kts
14-Nov-19 10:45 33.872054 -116.548956 320 4510ft 121kts
14-Nov-19 10:46 33.900505 -116.566612 26 6786ft 133kts
14-Nov-19 10:47 33.900462 -116.523153 112 8879ft 146kts
14-Nov-19 10:48 33.884636 -116.478476 136 10931ft 142kts
14-Nov-19 10:49 33.909154 -116.454878 317 12029ft 201kts
14-Nov-19 10:50 33.923954 -116.528661 274 11995ft 241kts
14-Nov-19 10:51 33.934217 -116.616586 275 12009ft 301kts
14-Nov-19 10:52 33.946571 -116.722015 275 11984ft 327kts
14-Nov-19 10:53 33.960365 -116.831228 276 11999ft 331kts
14-Nov-19 10:54 33.974428 -116.941793 276 12010ft 332kts
14-Nov-19 10:55 33.988386 -117.052623 276 12010ft 334kts
14-Nov-19 10:56 34.002253 -117.163608 276 12011ft 334kts
14-Nov-19 10:57 34.017816 -117.274854 283 12017ft 336kts
14-Nov-19 10:58 34.040790 -117.384290 282 12019ft 336kts
14-Nov-19 10:59 34.060338 -117.494613 270 12019ft 333kts
14-Nov-19 11:00 34.067690 -117.606958 271 12011ft 334kts
14-Nov-19 11:01 34.074416 -117.719468 271 12019ft 334kts
14-Nov-19 11:02 34.084401 -117.822882 277 9714ft 276kts
14-Nov-19 11:03 34.098593 -117.911346 280 8029ft 266kts
14-Nov-19 11:04 34.110802 -117.986904 280 8022ft 212kts
14-Nov-19 11:05 34.121114 -118.050976 280 7516ft 177kts
14-Nov-19 11:06 34.132833 -118.108266 287 6012ft 174kts
14-Nov-19 11:07 34.146974 -118.164267 287 5250ft 174kts
14-Nov-19 11:08 34.155542 -118.221488 268 4314ft 175kts
14-Nov-19 11:09 34.151552 -118.281412 252 4308ft 181kts
14-Nov-19 11:10 34.122843 -118.324398 222 3469ft 150kts
14-Nov-19 11:11 34.094798 -118.357694 222 2581ft 136kts
14-Nov-19 11:12 34.068071 -118.389370 222 1731ft 135kts
14-Nov-19 11:13 34.042151 -118.420002 224 942ft 109kts
14-Nov-19 11:14 34.024779 -118.440476 226 364ft 91kts
14-Nov-19 11:15 34.013439 -118.454113 217 137ft 17kts
14-Nov-19 11:16 34.012732 -118.453219 68 137ft 0kts

Navigation Log

Ident Type
Flight plan parsing failed, navigation log unavailable